sensor_id;sensor_type;location;lat;lon;timestamp;P1;durP1;ratioP1;P2;durP2;ratioP2
13785;SDS011;47474;48.824;9.384;2022-10-16T00:02:21;1.90;;;1.38;;
13785;SDS011;47474;48.824;9.384;2022-10-16T00:04:49;1.80;;;1.52;;
13785;SDS011;47474;48.824;9.384;2022-10-16T00:07:15;3.60;;;1.98;;
13785;SDS011;47474;48.824;9.384;2022-10-16T00:09:42;2.47;;;1.67;;
13785;SDS011;47474;48.824;9.384;2022-10-16T00:12:09;2.97;;;1.50;;
13785;SDS011;47474;48.824;9.384;2022-10-16T00:14:35;1.90;;;1.75;;
13785;SDS011;47474;48.824;9.384;2022-10-16T00:17:02;2.88;;;1.58;;
13785;SDS011;47474;48.824;9.384;2022-10-16T00:19:29;4.85;;;1.52;;
13785;SDS011;47474;48.824;9.384;2022-10-16T00:21:57;2.33;;;1.70;;
13785;SDS011;47474;48.824;9.384;2022-10-16T00:24:23;2.78;;;1.80;;
13785;SDS011;47474;48.824;9.384;2022-10-16T00:26:50;4.10;;;1.77;;
13785;SDS011;47474;48.824;9.384;2022-10-16T00:29:17;2.50;;;1.58;;
13785;SDS011;47474;48.824;9.384;2022-10-16T00:31:46;3.40;;;1.67;;
13785;SDS011;47474;48.824;9.384;2022-10-16T00:34:16;1.50;;;1.25;;
13785;SDS011;47474;48.824;9.384;2022-10-16T00:36:43;1.38;;;1.23;;
13785;SDS011;47474;48.824;9.384;2022-10-16T00:39:14;1.75;;;1.65;;
13785;SDS011;47474;48.824;9.384;2022-10-16T00:41:41;2.65;;;1.60;;
13785;SDS011;47474;48.824;9.384;2022-10-16T00:47:08;2.47;;;1.90;;
13785;SDS011;47474;48.824;9.384;2022-10-16T00:49:37;2.72;;;2.53;;
13785;SDS011;47474;48.824;9.384;2022-10-16T00:52:04;3.50;;;2.13;;
13785;SDS011;47474;48.824;9.384;2022-10-16T00:54:33;2.88;;;1.52;;
13785;SDS011;47474;48.824;9.384;2022-10-16T00:57:03;2.28;;;1.65;;
13785;SDS011;47474;48.824;9.384;2022-10-16T00:59:32;4.30;;;1.70;;
13785;SDS011;47474;48.824;9.384;2022-10-16T01:02:00;1.88;;;1.55;;
13785;SDS011;47474;48.824;9.384;2022-10-16T01:04:29;1.52;;;1.40;;
13785;SDS011;47474;48.824;9.384;2022-10-16T01:07:00;1.85;;;1.48;;
13785;SDS011;47474;48.824;9.384;2022-10-16T01:09:31;3.45;;;1.27;;
13785;SDS011;47474;48.824;9.384;2022-10-16T01:12:05;1.73;;;1.50;;
13785;SDS011;47474;48.824;9.384;2022-10-16T01:14:37;2.28;;;1.55;;
13785;SDS011;47474;48.824;9.384;2022-10-16T01:17:08;4.15;;;1.80;;
13785;SDS011;47474;48.824;9.384;2022-10-16T01:19:44;2.47;;;1.73;;
13785;SDS011;47474;48.824;9.384;2022-10-16T01:22:20;2.75;;;1.83;;
13785;SDS011;47474;48.824;9.384;2022-10-16T01:24:50;4.65;;;2.00;;
13785;SDS011;47474;48.824;9.384;2022-10-16T01:27:21;3.67;;;1.85;;
13785;SDS011;47474;48.824;9.384;2022-10-16T01:29:50;4.95;;;2.08;;
13785;SDS011;47474;48.824;9.384;2022-10-16T01:32:22;2.03;;;1.83;;
13785;SDS011;47474;48.824;9.384;2022-10-16T01:34:52;1.98;;;1.40;;
13785;SDS011;47474;48.824;9.384;2022-10-16T01:37:22;2.42;;;1.85;;
13785;SDS011;47474;48.824;9.384;2022-10-16T01:39:52;2.65;;;1.83;;
13785;SDS011;47474;48.824;9.384;2022-10-16T01:42:24;1.73;;;1.63;;
13785;SDS011;47474;48.824;9.384;2022-10-16T01:44:53;2.28;;;1.98;;
13785;SDS011;47474;48.824;9.384;2022-10-16T01:47:21;5.70;;;2.03;;
13785;SDS011;47474;48.824;9.384;2022-10-16T01:49:50;2.47;;;2.00;;
13785;SDS011;47474;48.824;9.384;2022-10-16T01:52:18;2.25;;;1.60;;
13785;SDS011;47474;48.824;9.384;2022-10-16T01:54:47;3.05;;;1.50;;
13785;SDS011;47474;48.824;9.384;2022-10-16T01:57:16;2.67;;;1.67;;
13785;SDS011;47474;48.824;9.384;2022-10-16T01:59:47;2.53;;;1.67;;
13785;SDS011;47474;48.824;9.384;2022-10-16T02:02:15;1.73;;;1.52;;
13785;SDS011;47474;48.824;9.384;2022-10-16T02:04:44;3.13;;;1.75;;
13785;SDS011;47474;48.824;9.384;2022-10-16T02:07:12;1.75;;;1.38;;
13785;SDS011;47474;48.824;9.384;2022-10-16T02:09:38;1.50;;;1.40;;
13785;SDS011;47474;48.824;9.384;2022-10-16T02:12:07;3.05;;;1.65;;
13785;SDS011;47474;48.824;9.384;2022-10-16T02:14:37;1.33;;;1.20;;
13785;SDS011;47474;48.824;9.384;2022-10-16T02:17:10;1.60;;;1.30;;
13785;SDS011;47474;48.824;9.384;2022-10-16T02:19:38;2.80;;;1.42;;
13785;SDS011;47474;48.824;9.384;2022-10-16T02:22:05;2.00;;;1.80;;
13785;SDS011;47474;48.824;9.384;2022-10-16T02:24:33;5.63;;;1.70;;
13785;SDS011;47474;48.824;9.384;2022-10-16T02:27:03;1.70;;;1.60;;
13785;SDS011;47474;48.824;9.384;2022-10-16T02:29:33;4.22;;;1.65;;
13785;SDS011;47474;48.824;9.384;2022-10-16T02:32:04;6.15;;;2.00;;
13785;SDS011;47474;48.824;9.384;2022-10-16T02:34:33;3.55;;;2.10;;
13785;SDS011;47474;48.824;9.384;2022-10-16T02:37:01;2.30;;;2.10;;
13785;SDS011;47474;48.824;9.384;2022-10-16T02:39:28;4.22;;;1.70;;
13785;SDS011;47474;48.824;9.384;2022-10-16T02:41:55;2.53;;;2.30;;
13785;SDS011;47474;48.824;9.384;2022-10-16T02:44:21;2.85;;;2.10;;
13785;SDS011;47474;48.824;9.384;2022-10-16T02:46:48;3.33;;;2.10;;
13785;SDS011;47474;48.824;9.384;2022-10-16T02:49:15;2.50;;;2.00;;
13785;SDS011;47474;48.824;9.384;2022-10-16T02:51:44;2.53;;;1.98;;
13785;SDS011;47474;48.824;9.384;2022-10-16T02:54:10;2.97;;;1.70;;
13785;SDS011;47474;48.824;9.384;2022-10-16T02:56:38;2.47;;;2.00;;
13785;SDS011;47474;48.824;9.384;2022-10-16T02:59:04;2.50;;;2.10;;
13785;SDS011;47474;48.824;9.384;2022-10-16T03:01:31;1.90;;;1.80;;
13785;SDS011;47474;48.824;9.384;2022-10-16T03:03:57;2.28;;;1.88;;
13785;SDS011;47474;48.824;9.384;2022-10-16T03:06:24;2.85;;;1.50;;
13785;SDS011;47474;48.824;9.384;2022-10-16T03:08:55;3.60;;;1.70;;
13785;SDS011;47474;48.824;9.384;2022-10-16T03:11:22;1.77;;;1.67;;
13785;SDS011;47474;48.824;9.384;2022-10-16T03:13:51;2.10;;;1.90;;
13785;SDS011;47474;48.824;9.384;2022-10-16T03:16:18;1.73;;;1.60;;
13785;SDS011;47474;48.824;9.384;2022-10-16T03:18:47;2.45;;;1.73;;
13785;SDS011;47474;48.824;9.384;2022-10-16T03:21:14;4.40;;;2.40;;
13785;SDS011;47474;48.824;9.384;2022-10-16T03:23:40;2.05;;;1.83;;
13785;SDS011;47474;48.824;9.384;2022-10-16T03:26:08;1.92;;;1.73;;
13785;SDS011;47474;48.824;9.384;2022-10-16T03:28:35;4.53;;;1.90;;
13785;SDS011;47474;48.824;9.384;2022-10-16T03:31:02;3.53;;;2.00;;
13785;SDS011;47474;48.824;9.384;2022-10-16T03:33:28;2.08;;;1.85;;
13785;SDS011;47474;48.824;9.384;2022-10-16T03:35:55;2.87;;;2.27;;
13785;SDS011;47474;48.824;9.384;2022-10-16T03:38:21;2.27;;;1.70;;
13785;SDS011;47474;48.824;9.384;2022-10-16T03:40:48;1.75;;;1.45;;
13785;SDS011;47474;48.824;9.384;2022-10-16T03:43:16;1.83;;;1.73;;
13785;SDS011;47474;48.824;9.384;2022-10-16T03:45:43;4.47;;;2.30;;
13785;SDS011;47474;48.824;9.384;2022-10-16T03:48:09;1.98;;;1.77;;
13785;SDS011;47474;48.824;9.384;2022-10-16T03:50:37;1.80;;;1.70;;
13785;SDS011;47474;48.824;9.384;2022-10-16T03:53:04;3.67;;;1.77;;
13785;SDS011;47474;48.824;9.384;2022-10-16T03:55:31;2.53;;;1.73;;
13785;SDS011;47474;48.824;9.384;2022-10-16T03:57:58;4.47;;;1.70;;
13785;SDS011;47474;48.824;9.384;2022-10-16T04:00:26;6.82;;;2.20;;
13785;SDS011;47474;48.824;9.384;2022-10-16T04:02:53;3.25;;;1.70;;
13785;SDS011;47474;48.824;9.384;2022-10-16T04:05:19;3.53;;;1.75;;
13785;SDS011;47474;48.824;9.384;2022-10-16T04:07:46;3.83;;;2.03;;
13785;SDS011;47474;48.824;9.384;2022-10-16T04:10:13;1.90;;;1.73;;
13785;SDS011;47474;48.824;9.384;2022-10-16T04:12:40;6.28;;;2.28;;
13785;SDS011;47474;48.824;9.384;2022-10-16T04:15:07;2.10;;;1.67;;
13785;SDS011;47474;48.824;9.384;2022-10-16T04:17:36;3.85;;;1.77;;
13785;SDS011;47474;48.824;9.384;2022-10-16T04:20:03;3.85;;;1.65;;
13785;SDS011;47474;48.824;9.384;2022-10-16T04:22:30;2.15;;;1.77;;
13785;SDS011;47474;48.824;9.384;2022-10-16T04:24:57;2.20;;;1.90;;
13785;SDS011;47474;48.824;9.384;2022-10-16T04:27:24;2.97;;;1.70;;
13785;SDS011;47474;48.824;9.384;2022-10-16T04:29:50;1.87;;;1.60;;
13785;SDS011;47474;48.824;9.384;2022-10-16T04:32:17;5.90;;;1.73;;
13785;SDS011;47474;48.824;9.384;2022-10-16T04:34:45;2.00;;;1.50;;
13785;SDS011;47474;48.824;9.384;2022-10-16T04:37:11;2.63;;;1.48;;
13785;SDS011;47474;48.824;9.384;2022-10-16T04:39:38;1.70;;;1.60;;
13785;SDS011;47474;48.824;9.384;2022-10-16T04:42:05;1.55;;;1.45;;
13785;SDS011;47474;48.824;9.384;2022-10-16T04:44:31;1.77;;;1.13;;
13785;SDS011;47474;48.824;9.384;2022-10-16T04:46:58;2.77;;;1.53;;
13785;SDS011;47474;48.824;9.384;2022-10-16T04:49:24;2.13;;;1.40;;
13785;SDS011;47474;48.824;9.384;2022-10-16T04:51:52;1.58;;;1.30;;
13785;SDS011;47474;48.824;9.384;2022-10-16T04:54:19;3.47;;;1.58;;
13785;SDS011;47474;48.824;9.384;2022-10-16T04:56:46;1.50;;;1.40;;
13785;SDS011;47474;48.824;9.384;2022-10-16T04:59:15;2.67;;;1.30;;
13785;SDS011;47474;48.824;9.384;2022-10-16T05:01:42;1.45;;;1.27;;
13785;SDS011;47474;48.824;9.384;2022-10-16T05:04:09;1.38;;;1.27;;
13785;SDS011;47474;48.824;9.384;2022-10-16T05:06:36;3.40;;;1.60;;
13785;SDS011;47474;48.824;9.384;2022-10-16T05:09:05;2.95;;;1.40;;
13785;SDS011;47474;48.824;9.384;2022-10-16T05:11:31;4.23;;;1.70;;
13785;SDS011;47474;48.824;9.384;2022-10-16T05:13:58;1.60;;;1.50;;
13785;SDS011;47474;48.824;9.384;2022-10-16T05:16:25;1.60;;;1.50;;
13785;SDS011;47474;48.824;9.384;2022-10-16T05:18:52;1.63;;;1.42;;
13785;SDS011;47474;48.824;9.384;2022-10-16T05:21:19;1.60;;;1.47;;
13785;SDS011;47474;48.824;9.384;2022-10-16T05:23:46;1.73;;;1.53;;
13785;SDS011;47474;48.824;9.384;2022-10-16T05:26:14;1.47;;;1.37;;
13785;SDS011;47474;48.824;9.384;2022-10-16T05:28:40;1.58;;;1.48;;
13785;SDS011;47474;48.824;9.384;2022-10-16T05:31:07;2.28;;;1.13;;
13785;SDS011;47474;48.824;9.384;2022-10-16T05:33:35;1.70;;;1.60;;
13785;SDS011;47474;48.824;9.384;2022-10-16T05:36:02;1.50;;;1.40;;
13785;SDS011;47474;48.824;9.384;2022-10-16T05:38:29;2.70;;;1.60;;
13785;SDS011;47474;48.824;9.384;2022-10-16T05:40:55;2.13;;;1.53;;
13785;SDS011;47474;48.824;9.384;2022-10-16T05:43:23;2.03;;;1.75;;
13785;SDS011;47474;48.824;9.384;2022-10-16T05:45:53;1.70;;;1.42;;
13785;SDS011;47474;48.824;9.384;2022-10-16T05:48:21;3.70;;;1.93;;
13785;SDS011;47474;48.824;9.384;2022-10-16T05:50:48;2.57;;;1.60;;
13785;SDS011;47474;48.824;9.384;2022-10-16T05:53:14;3.72;;;1.60;;
13785;SDS011;47474;48.824;9.384;2022-10-16T05:55:41;2.33;;;1.30;;
13785;SDS011;47474;48.824;9.384;2022-10-16T05:58:08;1.92;;;1.30;;
13785;SDS011;47474;48.824;9.384;2022-10-16T06:00:36;1.52;;;1.42;;
13785;SDS011;47474;48.824;9.384;2022-10-16T06:03:02;1.90;;;1.80;;
13785;SDS011;47474;48.824;9.384;2022-10-16T06:05:31;1.67;;;1.58;;
13785;SDS011;47474;48.824;9.384;2022-10-16T06:07:58;3.28;;;1.50;;
13785;SDS011;47474;48.824;9.384;2022-10-16T06:10:25;2.87;;;1.83;;
13785;SDS011;47474;48.824;9.384;2022-10-16T06:12:51;2.65;;;1.58;;
13785;SDS011;47474;48.824;9.384;2022-10-16T06:15:19;1.90;;;1.70;;
13785;SDS011;47474;48.824;9.384;2022-10-16T06:17:47;1.63;;;1.52;;
13785;SDS011;47474;48.824;9.384;2022-10-16T06:20:14;1.55;;;1.30;;
13785;SDS011;47474;48.824;9.384;2022-10-16T06:22:40;4.73;;;1.83;;
13785;SDS011;47474;48.824;9.384;2022-10-16T06:25:07;1.60;;;1.50;;
13785;SDS011;47474;48.824;9.384;2022-10-16T06:27:34;1.48;;;1.38;;
13785;SDS011;47474;48.824;9.384;2022-10-16T06:30:01;2.30;;;1.70;;
13785;SDS011;47474;48.824;9.384;2022-10-16T06:32:28;2.40;;;1.60;;
13785;SDS011;47474;48.824;9.384;2022-10-16T06:34:56;2.67;;;1.52;;
13785;SDS011;47474;48.824;9.384;2022-10-16T06:37:23;1.40;;;1.30;;
13785;SDS011;47474;48.824;9.384;2022-10-16T06:39:50;1.55;;;1.42;;
13785;SDS011;47474;48.824;9.384;2022-10-16T06:42:17;1.95;;;1.80;;
13785;SDS011;47474;48.824;9.384;2022-10-16T06:44:44;1.77;;;1.60;;
13785;SDS011;47474;48.824;9.384;2022-10-16T06:47:10;2.37;;;1.97;;
13785;SDS011;47474;48.824;9.384;2022-10-16T06:49:37;1.73;;;1.63;;
13785;SDS011;47474;48.824;9.384;2022-10-16T06:52:05;2.20;;;2.00;;
13785;SDS011;47474;48.824;9.384;2022-10-16T06:54:32;2.77;;;1.77;;
13785;SDS011;47474;48.824;9.384;2022-10-16T06:56:59;1.80;;;1.70;;
13785;SDS011;47474;48.824;9.384;2022-10-16T06:59:26;2.17;;;1.60;;
13785;SDS011;47474;48.824;9.384;2022-10-16T07:01:53;1.85;;;1.75;;
13785;SDS011;47474;48.824;9.384;2022-10-16T07:04:20;1.92;;;1.67;;
13785;SDS011;47474;48.824;9.384;2022-10-16T07:06:46;2.15;;;1.98;;
13785;SDS011;47474;48.824;9.384;2022-10-16T07:09:14;2.30;;;2.10;;
13785;SDS011;47474;48.824;9.384;2022-10-16T07:11:41;5.63;;;2.13;;
13785;SDS011;47474;48.824;9.384;2022-10-16T07:14:22;2.10;;;1.75;;
13785;SDS011;47474;48.824;9.384;2022-10-16T07:16:49;2.07;;;1.87;;
13785;SDS011;47474;48.824;9.384;2022-10-16T07:19:15;2.13;;;1.92;;
13785;SDS011;47474;48.824;9.384;2022-10-16T07:21:43;2.55;;;1.80;;
13785;SDS011;47474;48.824;9.384;2022-10-16T07:24:11;1.92;;;1.70;;
13785;SDS011;47474;48.824;9.384;2022-10-16T07:26:40;1.65;;;1.55;;
13785;SDS011;47474;48.824;9.384;2022-10-16T07:29:11;1.75;;;1.60;;
13785;SDS011;47474;48.824;9.384;2022-10-16T07:31:39;1.57;;;1.40;;
13785;SDS011;47474;48.824;9.384;2022-10-16T07:34:05;1.80;;;1.70;;
13785;SDS011;47474;48.824;9.384;2022-10-16T07:36:32;1.60;;;1.50;;
13785;SDS011;47474;48.824;9.384;2022-10-16T07:38:59;3.03;;;1.33;;
13785;SDS011;47474;48.824;9.384;2022-10-16T07:41:25;2.25;;;1.50;;
13785;SDS011;47474;48.824;9.384;2022-10-16T07:43:54;5.00;;;2.13;;
13785;SDS011;47474;48.824;9.384;2022-10-16T07:46:24;1.60;;;1.40;;
13785;SDS011;47474;48.824;9.384;2022-10-16T07:48:51;1.65;;;1.55;;
13785;SDS011;47474;48.824;9.384;2022-10-16T07:51:19;1.50;;;1.40;;
13785;SDS011;47474;48.824;9.384;2022-10-16T07:53:46;1.80;;;1.50;;
13785;SDS011;47474;48.824;9.384;2022-10-16T07:56:13;1.77;;;1.30;;
13785;SDS011;47474;48.824;9.384;2022-10-16T07:58:40;2.40;;;1.50;;
13785;SDS011;47474;48.824;9.384;2022-10-16T08:01:09;1.52;;;1.42;;
13785;SDS011;47474;48.824;9.384;2022-10-16T08:03:38;1.70;;;1.60;;
13785;SDS011;47474;48.824;9.384;2022-10-16T08:06:04;1.90;;;1.67;;
13785;SDS011;47474;48.824;9.384;2022-10-16T08:08:32;3.42;;;1.75;;
13785;SDS011;47474;48.824;9.384;2022-10-16T08:10:58;1.88;;;1.60;;
13785;SDS011;47474;48.824;9.384;2022-10-16T08:13:25;1.95;;;1.80;;
13785;SDS011;47474;48.824;9.384;2022-10-16T08:15:53;2.67;;;1.58;;
13785;SDS011;47474;48.824;9.384;2022-10-16T08:18:21;2.03;;;1.80;;
13785;SDS011;47474;48.824;9.384;2022-10-16T08:20:54;2.05;;;1.83;;
13785;SDS011;47474;48.824;9.384;2022-10-16T08:23:21;2.22;;;1.75;;
13785;SDS011;47474;48.824;9.384;2022-10-16T08:25:48;3.42;;;1.92;;
13785;SDS011;47474;48.824;9.384;2022-10-16T08:28:14;1.92;;;1.70;;
13785;SDS011;47474;48.824;9.384;2022-10-16T08:30:41;2.50;;;1.55;;
13785;SDS011;47474;48.824;9.384;2022-10-16T08:33:08;2.15;;;1.95;;
13785;SDS011;47474;48.824;9.384;2022-10-16T08:35:37;1.92;;;1.83;;
13785;SDS011;47474;48.824;9.384;2022-10-16T08:38:04;3.50;;;2.17;;
13785;SDS011;47474;48.824;9.384;2022-10-16T08:40:31;2.20;;;2.00;;
13785;SDS011;47474;48.824;9.384;2022-10-16T08:43:06;2.35;;;2.00;;
13785;SDS011;47474;48.824;9.384;2022-10-16T08:45:49;2.15;;;1.95;;
13785;SDS011;47474;48.824;9.384;2022-10-16T08:48:23;5.93;;;2.42;;
13785;SDS011;47474;48.824;9.384;2022-10-16T08:50:54;4.40;;;2.38;;
13785;SDS011;47474;48.824;9.384;2022-10-16T08:53:22;5.00;;;2.00;;
13785;SDS011;47474;48.824;9.384;2022-10-16T08:55:52;2.97;;;1.80;;
13785;SDS011;47474;48.824;9.384;2022-10-16T08:58:20;2.42;;;2.22;;
13785;SDS011;47474;48.824;9.384;2022-10-16T09:00:48;1.75;;;1.63;;
13785;SDS011;47474;48.824;9.384;2022-10-16T09:03:17;2.42;;;1.92;;
13785;SDS011;47474;48.824;9.384;2022-10-16T09:06:09;1.80;;;1.70;;
13785;SDS011;47474;48.824;9.384;2022-10-16T09:08:44;2.40;;;1.75;;
13785;SDS011;47474;48.824;9.384;2022-10-16T09:11:22;2.60;;;1.80;;
13785;SDS011;47474;48.824;9.384;2022-10-16T09:14:14;5.15;;;2.20;;
13785;SDS011;47474;48.824;9.384;2022-10-16T09:16:51;4.22;;;2.20;;
13785;SDS011;47474;48.824;9.384;2022-10-16T09:19:23;2.65;;;2.03;;
13785;SDS011;47474;48.824;9.384;2022-10-16T09:21:53;2.50;;;2.30;;
13785;SDS011;47474;48.824;9.384;2022-10-16T09:24:21;3.35;;;1.90;;
13785;SDS011;47474;48.824;9.384;2022-10-16T09:26:49;2.20;;;2.00;;
13785;SDS011;47474;48.824;9.384;2022-10-16T09:29:16;2.72;;;2.00;;
13785;SDS011;47474;48.824;9.384;2022-10-16T09:31:46;2.33;;;1.90;;
13785;SDS011;47474;48.824;9.384;2022-10-16T09:34:24;1.83;;;1.70;;
13785;SDS011;47474;48.824;9.384;2022-10-16T09:36:55;1.70;;;1.60;;
13785;SDS011;47474;48.824;9.384;2022-10-16T09:39:23;2.25;;;1.83;;
13785;SDS011;47474;48.824;9.384;2022-10-16T09:41:50;2.10;;;1.60;;
13785;SDS011;47474;48.824;9.384;2022-10-16T09:44:18;1.55;;;1.45;;
13785;SDS011;47474;48.824;9.384;2022-10-16T09:46:46;1.92;;;1.67;;
13785;SDS011;47474;48.824;9.384;2022-10-16T09:49:19;2.40;;;2.15;;
13785;SDS011;47474;48.824;9.384;2022-10-16T09:51:47;2.97;;;2.40;;
13785;SDS011;47474;48.824;9.384;2022-10-16T09:54:15;3.88;;;1.92;;
13785;SDS011;47474;48.824;9.384;2022-10-16T09:56:43;2.20;;;1.92;;
13785;SDS011;47474;48.824;9.384;2022-10-16T09:59:11;1.85;;;1.70;;
13785;SDS011;47474;48.824;9.384;2022-10-16T10:01:39;2.75;;;2.28;;
13785;SDS011;47474;48.824;9.384;2022-10-16T10:04:07;1.95;;;1.85;;
13785;SDS011;47474;48.824;9.384;2022-10-16T10:06:34;4.72;;;1.95;;
13785;SDS011;47474;48.824;9.384;2022-10-16T10:09:04;2.35;;;1.58;;
13785;SDS011;47474;48.824;9.384;2022-10-16T10:11:38;3.75;;;1.85;;
13785;SDS011;47474;48.824;9.384;2022-10-16T10:14:05;2.15;;;1.90;;
13785;SDS011;47474;48.824;9.384;2022-10-16T10:16:32;2.65;;;1.80;;
13785;SDS011;47474;48.824;9.384;2022-10-16T10:18:59;2.78;;;1.50;;
13785;SDS011;47474;48.824;9.384;2022-10-16T10:21:25;2.17;;;1.30;;
13785;SDS011;47474;48.824;9.384;2022-10-16T10:23:54;1.42;;;1.33;;
13785;SDS011;47474;48.824;9.384;2022-10-16T10:26:22;2.83;;;1.52;;
13785;SDS011;47474;48.824;9.384;2022-10-16T10:28:54;1.42;;;1.33;;
13785;SDS011;47474;48.824;9.384;2022-10-16T10:31:24;1.63;;;1.52;;
13785;SDS011;47474;48.824;9.384;2022-10-16T10:33:55;1.58;;;1.30;;
13785;SDS011;47474;48.824;9.384;2022-10-16T10:36:27;1.35;;;1.10;;
13785;SDS011;47474;48.824;9.384;2022-10-16T10:38:56;3.78;;;1.30;;
13785;SDS011;47474;48.824;9.384;2022-10-16T10:41:28;1.52;;;1.15;;
13785;SDS011;47474;48.824;9.384;2022-10-16T10:44:05;1.85;;;1.23;;
13785;SDS011;47474;48.824;9.384;2022-10-16T10:46:41;0.82;;;0.80;;
13785;SDS011;47474;48.824;9.384;2022-10-16T10:49:12;1.48;;;1.08;;
13785;SDS011;47474;48.824;9.384;2022-10-16T10:51:48;1.70;;;1.58;;
13785;SDS011;47474;48.824;9.384;2022-10-16T10:54:23;1.67;;;1.30;;
13785;SDS011;47474;48.824;9.384;2022-10-16T10:56:56;1.67;;;1.50;;
13785;SDS011;47474;48.824;9.384;2022-10-16T10:59:32;1.27;;;1.13;;
13785;SDS011;47474;48.824;9.384;2022-10-16T11:02:07;1.42;;;1.33;;
13785;SDS011;47474;48.824;9.384;2022-10-16T11:08:00;1.27;;;1.13;;
13785;SDS011;47474;48.824;9.384;2022-10-16T11:10:29;1.95;;;1.23;;
13785;SDS011;47474;48.824;9.384;2022-10-16T11:13:00;1.27;;;1.20;;
13785;SDS011;47474;48.824;9.384;2022-10-16T11:15:35;1.70;;;1.20;;
13785;SDS011;47474;48.824;9.384;2022-10-16T11:18:05;1.92;;;1.40;;
13785;SDS011;47474;48.824;9.384;2022-10-16T11:20:33;7.97;;;1.30;;
13785;SDS011;47474;48.824;9.384;2022-10-16T11:23:02;2.88;;;1.38;;
13785;SDS011;47474;48.824;9.384;2022-10-16T11:25:33;2.05;;;1.40;;
13785;SDS011;47474;48.824;9.384;2022-10-16T11:28:01;1.52;;;1.42;;
13785;SDS011;47474;48.824;9.384;2022-10-16T11:30:29;2.00;;;1.20;;
13785;SDS011;47474;48.824;9.384;2022-10-16T11:33:04;3.10;;;1.13;;
13785;SDS011;47474;48.824;9.384;2022-10-16T11:35:41;1.25;;;1.15;;
13785;SDS011;47474;48.824;9.384;2022-10-16T11:38:12;2.65;;;1.33;;
13785;SDS011;47474;48.824;9.384;2022-10-16T11:40:42;1.70;;;1.45;;
13785;SDS011;47474;48.824;9.384;2022-10-16T11:43:11;1.10;;;1.05;;
13785;SDS011;47474;48.824;9.384;2022-10-16T11:45:41;2.03;;;1.15;;
13785;SDS011;47474;48.824;9.384;2022-10-16T11:48:15;1.42;;;1.20;;
13785;SDS011;47474;48.824;9.384;2022-10-16T11:50:48;1.35;;;1.13;;
13785;SDS011;47474;48.824;9.384;2022-10-16T11:53:19;2.65;;;1.20;;
13785;SDS011;47474;48.824;9.384;2022-10-16T11:55:50;2.50;;;1.17;;
13785;SDS011;47474;48.824;9.384;2022-10-16T11:58:20;1.63;;;1.20;;
13785;SDS011;47474;48.824;9.384;2022-10-16T12:00:52;2.55;;;1.20;;
13785;SDS011;47474;48.824;9.384;2022-10-16T12:03:24;1.58;;;1.33;;
13785;SDS011;47474;48.824;9.384;2022-10-16T12:06:20;2.13;;;1.30;;
13785;SDS011;47474;48.824;9.384;2022-10-16T12:08:51;1.35;;;1.20;;
13785;SDS011;47474;48.824;9.384;2022-10-16T12:11:23;1.77;;;1.38;;
13785;SDS011;47474;48.824;9.384;2022-10-16T12:14:03;1.77;;;1.30;;
13785;SDS011;47474;48.824;9.384;2022-10-16T12:16:32;1.30;;;1.20;;
13785;SDS011;47474;48.824;9.384;2022-10-16T12:19:13;3.15;;;1.15;;
13785;SDS011;47474;48.824;9.384;2022-10-16T12:21:41;2.70;;;1.55;;
13785;SDS011;47474;48.824;9.384;2022-10-16T12:24:18;2.00;;;1.30;;
13785;SDS011;47474;48.824;9.384;2022-10-16T12:26:47;1.80;;;1.30;;
13785;SDS011;47474;48.824;9.384;2022-10-16T12:29:21;3.47;;;1.30;;
13785;SDS011;47474;48.824;9.384;2022-10-16T12:31:58;1.77;;;1.67;;
13785;SDS011;47474;48.824;9.384;2022-10-16T12:34:28;1.88;;;1.27;;
13785;SDS011;47474;48.824;9.384;2022-10-16T12:36:56;2.38;;;1.20;;
13785;SDS011;47474;48.824;9.384;2022-10-16T12:39:23;1.38;;;1.27;;
13785;SDS011;47474;48.824;9.384;2022-10-16T12:42:00;2.92;;;1.40;;
13785;SDS011;47474;48.824;9.384;2022-10-16T12:44:31;4.10;;;1.50;;
13785;SDS011;47474;48.824;9.384;2022-10-16T12:46:59;1.80;;;1.10;;
13785;SDS011;47474;48.824;9.384;2022-10-16T12:49:31;1.25;;;1.00;;
13785;SDS011;47474;48.824;9.384;2022-10-16T12:52:02;1.30;;;1.00;;
13785;SDS011;47474;48.824;9.384;2022-10-16T12:54:30;1.30;;;1.20;;
13785;SDS011;47474;48.824;9.384;2022-10-16T12:57:01;2.90;;;1.38;;
13785;SDS011;47474;48.824;9.384;2022-10-16T12:59:38;1.85;;;1.30;;
13785;SDS011;47474;48.824;9.384;2022-10-16T13:02:16;2.80;;;1.20;;
13785;SDS011;47474;48.824;9.384;2022-10-16T13:05:00;1.13;;;1.02;;
13785;SDS011;47474;48.824;9.384;2022-10-16T13:07:44;2.33;;;1.10;;
13785;SDS011;47474;48.824;9.384;2022-10-16T13:10:19;1.27;;;1.08;;
13785;SDS011;47474;48.824;9.384;2022-10-16T13:12:57;1.45;;;1.30;;
13785;SDS011;47474;48.824;9.384;2022-10-16T13:15:38;1.83;;;1.52;;
13785;SDS011;47474;48.824;9.384;2022-10-16T13:18:13;3.20;;;1.60;;
13785;SDS011;47474;48.824;9.384;2022-10-16T13:20:49;1.73;;;1.50;;
13785;SDS011;47474;48.824;9.384;2022-10-16T13:23:22;3.88;;;1.42;;
13785;SDS011;47474;48.824;9.384;2022-10-16T13:25:56;1.65;;;1.48;;
13785;SDS011;47474;48.824;9.384;2022-10-16T13:28:29;1.50;;;1.40;;
13785;SDS011;47474;48.824;9.384;2022-10-16T13:30:58;2.13;;;1.58;;
13785;SDS011;47474;48.824;9.384;2022-10-16T13:33:27;2.28;;;1.30;;
13785;SDS011;47474;48.824;9.384;2022-10-16T13:35:59;4.88;;;1.38;;
13785;SDS011;47474;48.824;9.384;2022-10-16T13:38:26;1.35;;;1.25;;
13785;SDS011;47474;48.824;9.384;2022-10-16T13:40:54;1.83;;;1.50;;
13785;SDS011;47474;48.824;9.384;2022-10-16T13:43:23;1.35;;;1.25;;
13785;SDS011;47474;48.824;9.384;2022-10-16T13:45:52;4.50;;;1.27;;
13785;SDS011;47474;48.824;9.384;2022-10-16T13:48:23;1.63;;;1.30;;
13785;SDS011;47474;48.824;9.384;2022-10-16T13:51:04;3.78;;;1.17;;
13785;SDS011;47474;48.824;9.384;2022-10-16T13:53:33;1.30;;;1.20;;
13785;SDS011;47474;48.824;9.384;2022-10-16T13:56:01;1.45;;;1.20;;
13785;SDS011;47474;48.824;9.384;2022-10-16T13:58:29;1.92;;;1.23;;
13785;SDS011;47474;48.824;9.384;2022-10-16T14:00:56;1.30;;;1.20;;
13785;SDS011;47474;48.824;9.384;2022-10-16T14:03:24;2.60;;;1.20;;
13785;SDS011;47474;48.824;9.384;2022-10-16T14:05:52;4.75;;;1.08;;
13785;SDS011;47474;48.824;9.384;2022-10-16T14:08:20;2.13;;;1.30;;
13785;SDS011;47474;48.824;9.384;2022-10-16T14:10:48;1.58;;;1.30;;
13785;SDS011;47474;48.824;9.384;2022-10-16T14:13:16;1.30;;;1.20;;
13785;SDS011;47474;48.824;9.384;2022-10-16T14:15:45;1.60;;;1.50;;
13785;SDS011;47474;48.824;9.384;2022-10-16T14:18:15;1.45;;;1.30;;
13785;SDS011;47474;48.824;9.384;2022-10-16T14:20:45;1.40;;;1.30;;
13785;SDS011;47474;48.824;9.384;2022-10-16T14:23:19;1.70;;;1.15;;
13785;SDS011;47474;48.824;9.384;2022-10-16T14:25:48;1.80;;;1.48;;
13785;SDS011;47474;48.824;9.384;2022-10-16T14:28:16;1.30;;;1.20;;
13785;SDS011;47474;48.824;9.384;2022-10-16T14:30:50;1.95;;;1.27;;
13785;SDS011;47474;48.824;9.384;2022-10-16T14:33:20;1.52;;;1.20;;
13785;SDS011;47474;48.824;9.384;2022-10-16T14:35:56;1.30;;;1.20;;
13785;SDS011;47474;48.824;9.384;2022-10-16T14:38:27;1.20;;;1.10;;
13785;SDS011;47474;48.824;9.384;2022-10-16T14:40:54;2.20;;;1.25;;
13785;SDS011;47474;48.824;9.384;2022-10-16T14:43:26;1.40;;;1.30;;
13785;SDS011;47474;48.824;9.384;2022-10-16T14:45:56;1.83;;;1.27;;
13785;SDS011;47474;48.824;9.384;2022-10-16T14:48:23;4.00;;;1.35;;
13785;SDS011;47474;48.824;9.384;2022-10-16T14:50:50;1.42;;;1.27;;
13785;SDS011;47474;48.824;9.384;2022-10-16T14:53:17;1.38;;;1.27;;
13785;SDS011;47474;48.824;9.384;2022-10-16T14:55:45;2.25;;;1.27;;
13785;SDS011;47474;48.824;9.384;2022-10-16T14:58:13;0.95;;;0.90;;
13785;SDS011;47474;48.824;9.384;2022-10-16T15:00:41;3.60;;;1.50;;
13785;SDS011;47474;48.824;9.384;2022-10-16T15:03:07;1.17;;;1.08;;
13785;SDS011;47474;48.824;9.384;2022-10-16T15:05:34;1.58;;;1.27;;
13785;SDS011;47474;48.824;9.384;2022-10-16T15:08:01;2.67;;;1.40;;